createdAt,value
2018-07-26T00:00:57.768Z,94515.79
2018-07-26T00:03:27.253Z,94516.33
2018-07-26T00:05:57.292Z,94513.11
2018-07-26T00:08:27.315Z,94516.02
2018-07-26T00:10:57.162Z,94516.41
2018-07-26T00:13:27.223Z,94515.86
2018-07-26T00:15:56.788Z,94514.31
2018-07-26T00:18:30.061Z,94510.46
2018-07-26T00:21:00.210Z,94515.55
2018-07-26T00:23:29.576Z,94508.60
2018-07-26T00:25:59.279Z,94511.25
2018-07-26T00:28:28.730Z,94510.55
2018-07-26T00:30:58.281Z,94511.79
2018-07-26T00:33:28.241Z,94513.02
2018-07-26T00:35:58.046Z,94506.80
2018-07-26T00:38:28.692Z,94514.44
2018-07-26T00:40:59.459Z,94514.44
2018-07-26T00:43:29.065Z,94510.72
2018-07-26T00:45:58.630Z,94514.53
2018-07-26T00:48:28.439Z,94522.08
2018-07-26T00:50:58.222Z,94512.39
2018-07-26T00:53:28.638Z,94510.47
2018-07-26T00:55:58.956Z,94513.66
2018-07-26T00:58:28.748Z,94511.25
2018-07-26T01:00:59.001Z,94517.25
2018-07-26T01:03:29.890Z,94516.65
2018-07-26T01:05:59.438Z,94513.75
2018-07-26T01:08:29.487Z,94515.38
2018-07-26T01:10:59.299Z,94505.03
2018-07-26T01:13:29.877Z,94508.30
2018-07-26T01:16:00.663Z,94512.59
2018-07-26T01:18:30.871Z,94506.97
2018-07-26T01:21:00.971Z,94508.08
2018-07-26T01:23:30.710Z,94504.80
2018-07-26T01:26:00.935Z,94504.63
2018-07-26T01:28:30.552Z,94499.55
2018-07-26T01:31:00.832Z,94507.52
2018-07-26T01:33:30.701Z,94498.08
2018-07-26T01:36:00.510Z,94498.87
2018-07-26T01:38:29.891Z,94498.86
2018-07-26T01:40:59.822Z,94509.00
2018-07-26T01:43:50.004Z,94510.17
2018-07-26T01:46:23.563Z,94508.05
2018-07-26T01:48:53.064Z,94505.41
2018-07-26T01:51:22.832Z,94500.02
2018-07-26T01:53:52.733Z,94505.64
2018-07-26T01:56:23.740Z,94506.59
2018-07-26T01:58:53.860Z,94504.16
2018-07-26T02:01:23.675Z,94507.45
2018-07-26T02:03:53.381Z,94504.86
2018-07-26T02:06:23.212Z,94506.19
2018-07-26T02:08:53.775Z,94502.91
2018-07-26T02:11:23.621Z,94502.14
2018-07-26T02:13:53.247Z,94497.69
2018-07-26T02:16:22.771Z,94493.62
2018-07-26T02:18:52.375Z,94498.87
2018-07-26T02:21:22.990Z,94492.08
2018-07-26T02:23:53.046Z,94492.24
2018-07-26T02:26:22.539Z,94492.16
2018-07-26T02:28:52.541Z,94493.16
2018-07-26T02:31:22.073Z,94502.45
2018-07-26T02:33:51.885Z,94499.00
2018-07-26T02:36:21.574Z,94503.14
2018-07-26T02:38:51.044Z,94504.31
2018-07-26T02:41:20.910Z,94509.73
2018-07-26T02:43:51.086Z,94508.19
2018-07-26T02:46:20.767Z,94520.92
2018-07-26T02:48:51.641Z,94518.27
2018-07-26T02:51:22.200Z,94514.50
2018-07-26T02:53:51.706Z,94516.92
2018-07-26T02:56:21.598Z,94521.05
2018-07-26T02:58:52.169Z,94516.03
2018-07-26T03:01:22.380Z,94515.50
2018-07-26T03:03:51.865Z,94521.81
2018-07-26T03:06:22.112Z,94520.94
2018-07-26T03:08:52.051Z,94519.56
2018-07-26T03:11:21.851Z,94521.90
2018-07-26T03:13:51.514Z,94518.15
2018-07-26T03:16:21.792Z,94520.32
2018-07-26T03:18:51.538Z,94515.02
2018-07-26T03:21:21.186Z,94520.63
2018-07-26T03:23:51.128Z,94517.92
2018-07-26T03:26:21.027Z,94518.52
2018-07-26T03:28:50.838Z,94513.64
2018-07-26T03:31:20.426Z,94515.98
2018-07-26T03:33:50.152Z,94528.69
2018-07-26T03:36:19.958Z,94522.85
2018-07-26T03:38:49.522Z,94527.53
2018-07-26T03:41:19.165Z,94526.09
2018-07-26T03:43:48.785Z,94530.06
2018-07-26T03:46:18.798Z,94528.98
2018-07-26T03:48:48.367Z,94534.57
2018-07-26T03:51:18.045Z,94540.66
2018-07-26T03:53:47.950Z,94539.33
2018-07-26T03:56:17.489Z,94548.45
2018-07-26T03:58:47.359Z,94545.81
2018-07-26T04:01:17.468Z,94542.41
2018-07-26T04:03:47.223Z,94545.53
2018-07-26T04:06:16.695Z,94543.73
2018-07-26T04:08:46.601Z,94546.28
2018-07-26T04:11:16.516Z,94548.41
2018-07-26T04:13:46.207Z,94547.02
2018-07-26T04:16:16.182Z,94552.55
2018-07-26T04:18:45.869Z,94560.82
2018-07-26T04:21:15.347Z,94564.90
2018-07-26T04:23:45.287Z,94563.47
2018-07-26T04:26:15.057Z,94570.72
2018-07-26T04:28:44.491Z,94567.44
2018-07-26T04:31:14.440Z,94563.72
2018-07-26T04:33:44.040Z,94568.77
2018-07-26T04:36:13.749Z,94564.27
2018-07-26T04:38:43.773Z,94568.03
2018-07-26T04:41:13.357Z,94566.92
2018-07-26T04:43:43.185Z,94573.44
2018-07-26T04:46:12.846Z,94569.91
2018-07-26T04:48:42.353Z,94574.23
2018-07-26T04:51:12.001Z,94574.45
2018-07-26T04:53:41.829Z,94574.14
2018-07-26T04:56:11.281Z,94576.48
2018-07-26T04:58:41.010Z,94576.48
2018-07-26T05:01:10.981Z,94583.84
2018-07-26T05:03:40.866Z,94589.47
2018-07-26T05:06:10.518Z,94587.28
2018-07-26T05:08:40.072Z,94580.13
2018-07-26T05:11:09.678Z,94579.81
2018-07-26T05:13:39.111Z,94581.02
2018-07-26T05:16:09.097Z,94588.72
2018-07-26T05:18:38.768Z,94584.52
2018-07-26T05:21:08.339Z,94585.02
2018-07-26T05:23:38.269Z,94586.88
2018-07-26T05:26:07.753Z,94585.18
2018-07-26T05:28:37.357Z,94588.44
2018-07-26T05:31:06.771Z,94583.89
2018-07-26T05:33:36.662Z,94590.95
2018-07-26T05:36:06.501Z,94589.02
2018-07-26T05:38:36.433Z,94593.05
2018-07-26T05:41:06.087Z,94600.80
2018-07-26T05:43:35.647Z,94602.83
2018-07-26T05:46:06.017Z,94605.25
2018-07-26T05:48:38.393Z,94609.45
2018-07-26T05:51:09.347Z,94609.62
2018-07-26T05:53:39.493Z,94611.33
2018-07-26T05:56:21.261Z,94616.09
2018-07-26T05:59:00.302Z,94616.23
2018-07-26T06:01:31.122Z,94608.48
2018-07-26T06:04:06.471Z,94613.95
2018-07-26T06:06:43.555Z,94614.34
2018-07-26T06:09:13.632Z,94609.50
2018-07-26T06:11:43.210Z,94607.84
2018-07-26T06:14:13.970Z,94613.23
2018-07-26T06:16:44.093Z,94615.05
2018-07-26T06:19:14.070Z,94619.34
2018-07-26T06:21:43.887Z,94612.77
2018-07-26T06:27:02.530Z,94618.16
2018-07-26T06:29:38.171Z,94620.09
2018-07-26T06:32:08.015Z,94623.40
2018-07-26T06:34:38.021Z,94622.36
2018-07-26T06:37:07.893Z,94615.75
2018-07-26T06:39:37.600Z,94618.19
2018-07-26T06:42:08.889Z,94614.56
2018-07-26T06:44:41.123Z,94619.87
2018-07-26T06:47:11.545Z,94617.39
2018-07-26T06:49:46.441Z,94619.87
2018-07-26T06:52:17.125Z,94611.99
2018-07-26T06:54:47.843Z,94607.74
2018-07-26T06:57:19.767Z,94609.55
2018-07-26T06:59:52.471Z,94612.77
2018-07-26T07:02:22.471Z,94617.12
2018-07-26T07:04:53.107Z,94616.23
2018-07-26T07:07:29.418Z,94613.53
2018-07-26T07:09:59.263Z,94609.34
2018-07-26T07:12:33.095Z,94610.80
2018-07-26T07:15:02.849Z,94617.63
2018-07-26T07:17:32.560Z,94612.80
2018-07-26T07:20:02.250Z,94609.25
2018-07-26T07:22:33.161Z,94621.83
2018-07-26T07:25:04.118Z,94618.27
2018-07-26T07:27:33.827Z,94617.72
2018-07-26T07:30:03.427Z,94616.97
2018-07-26T07:32:33.457Z,94619.53
2018-07-26T07:35:03.172Z,94611.59
2018-07-26T07:37:40.688Z,94606.56
2018-07-26T07:40:14.550Z,94610.00
2018-07-26T07:42:48.549Z,94615.73
2018-07-26T07:45:19.458Z,94616.73
2018-07-26T07:47:56.568Z,94616.19
2018-07-26T07:50:32.512Z,94620.18
2018-07-26T07:53:03.734Z,94617.05
2018-07-26T07:55:33.741Z,94615.30
2018-07-26T07:58:04.108Z,94614.38
2018-07-26T08:00:37.110Z,94614.84
2018-07-26T08:03:07.249Z,94612.84
2018-07-26T08:05:36.743Z,94613.73
2018-07-26T08:08:07.663Z,94609.70
2018-07-26T08:10:43.870Z,94611.03
2018-07-26T08:13:15.185Z,94606.78
2018-07-26T08:15:48.677Z,94605.19
2018-07-26T08:18:19.415Z,94610.83
2018-07-26T08:20:54.464Z,94609.49
2018-07-26T08:23:29.545Z,94607.22
2018-07-26T08:26:07.509Z,94608.52
2018-07-26T08:28:37.800Z,94600.98
2018-07-26T08:31:08.206Z,94604.79
2018-07-26T08:33:39.623Z,94603.02
2018-07-26T08:36:10.664Z,94597.36
2018-07-26T08:38:55.533Z,94603.52
2018-07-26T08:41:40.092Z,94593.55
2018-07-26T08:46:55.687Z,94596.17
2018-07-26T08:49:49.409Z,94588.64
2018-07-26T08:52:22.227Z,94597.38
2018-07-26T08:54:53.175Z,94597.23
2018-07-26T08:57:41.719Z,94593.98
2018-07-26T09:00:12.470Z,94596.11
2018-07-26T09:02:43.259Z,94591.33
2018-07-26T09:05:14.822Z,94590.88
2018-07-26T09:07:46.516Z,94582.66
2018-07-26T09:10:28.961Z,94575.01
2018-07-26T09:13:00.165Z,94567.23
2018-07-26T09:15:45.896Z,94575.81
2018-07-26T09:18:22.475Z,94574.39
2018-07-26T09:20:58.924Z,94573.37
2018-07-26T09:23:30.362Z,94571.25
2018-07-26T09:26:08.202Z,94566.63
2018-07-26T09:28:39.118Z,94569.05
2018-07-26T09:31:31.619Z,94566.37
2018-07-26T09:34:06.206Z,94565.69
2018-07-26T09:36:41.272Z,94564.61
2018-07-26T09:39:20.352Z,94568.08
2018-07-26T09:41:52.100Z,94566.98
2018-07-26T09:44:33.981Z,94557.48
2018-07-26T09:47:05.445Z,94553.55
2018-07-26T09:49:37.203Z,94559.09
2018-07-26T09:52:11.834Z,94550.11
2018-07-26T09:54:45.572Z,94556.97
2018-07-26T09:57:23.245Z,94553.84
2018-07-26T10:00:08.186Z,94566.95
2018-07-26T10:02:52.709Z,94549.38
2018-07-26T10:05:32.016Z,94552.09
2018-07-26T10:08:03.427Z,94548.53
2018-07-26T10:10:37.385Z,94544.52
2018-07-26T10:13:08.879Z,94546.55
2018-07-26T10:15:46.654Z,94539.66
2018-07-26T10:18:18.241Z,94538.50
2018-07-26T10:20:48.087Z,94535.56
2018-07-26T10:23:17.737Z,94530.00
2018-07-26T10:25:47.550Z,94536.20
2018-07-26T10:28:17.502Z,94530.60
2018-07-26T10:30:47.120Z,94535.42
2018-07-26T10:33:17.037Z,94531.21
2018-07-26T10:35:46.862Z,94528.06
2018-07-26T10:38:16.353Z,94526.72
2018-07-26T10:40:45.760Z,94527.13
2018-07-26T10:43:15.795Z,94526.29
2018-07-26T10:45:52.064Z,94523.79
2018-07-26T10:48:21.711Z,94523.05
2018-07-26T10:50:51.186Z,94530.52
2018-07-26T10:53:20.727Z,94520.11
2018-07-26T10:55:50.589Z,94514.38
2018-07-26T10:58:20.176Z,94517.30
2018-07-26T11:00:49.987Z,94504.91
2018-07-26T11:03:19.912Z,94509.44
2018-07-26T11:05:49.806Z,94512.56
2018-07-26T11:08:20.147Z,94505.81
2018-07-26T11:10:50.077Z,94509.06
2018-07-26T11:13:19.717Z,94504.69
2018-07-26T11:15:49.062Z,94504.63
2018-07-26T11:18:19.000Z,94504.08
2018-07-26T11:20:48.339Z,94500.86
2018-07-26T11:23:18.330Z,94512.59
2018-07-26T11:25:47.840Z,94509.92
2018-07-26T11:28:17.325Z,94510.91
2018-07-26T11:30:46.912Z,94520.27
2018-07-26T11:33:16.333Z,94526.54
2018-07-26T11:35:46.105Z,94526.05
2018-07-26T11:38:15.993Z,94534.04
2018-07-26T11:40:46.371Z,94531.44
2018-07-26T11:43:15.982Z,94540.14
2018-07-26T11:45:45.745Z,94535.00
2018-07-26T11:48:15.543Z,94526.79
2018-07-26T11:50:45.444Z,94533.34
2018-07-26T11:53:15.303Z,94546.02
2018-07-26T11:55:46.281Z,94536.71
2018-07-26T11:58:16.127Z,94534.98
2018-07-26T12:00:46.785Z,94540.03
2018-07-26T12:03:17.822Z,94532.42
2018-07-26T12:05:58.161Z,94526.00
2018-07-26T12:08:28.248Z,94523.75
2018-07-26T12:10:57.661Z,94532.72
2018-07-26T12:13:27.283Z,94534.51
2018-07-26T12:15:57.207Z,94530.78
2018-07-26T12:18:26.694Z,94534.98
2018-07-26T12:20:56.303Z,94522.59
2018-07-26T12:23:26.346Z,94527.11
2018-07-26T12:25:56.080Z,94527.05
2018-07-26T12:28:25.400Z,94517.09
2018-07-26T12:30:55.412Z,94522.38
2018-07-26T12:33:25.161Z,94523.98
2018-07-26T12:35:54.969Z,94536.23
2018-07-26T12:38:25.034Z,94536.55
2018-07-26T12:40:57.146Z,94541.61
2018-07-26T12:43:29.060Z,94534.64
2018-07-26T12:45:58.845Z,94523.36
2018-07-26T12:48:28.758Z,94528.74
2018-07-26T12:50:59.768Z,94526.99
2018-07-26T12:53:31.583Z,94521.56
2018-07-26T12:56:03.413Z,94526.77
2018-07-26T12:58:37.005Z,94523.45
2018-07-26T13:01:09.457Z,94518.95
2018-07-26T13:03:43.090Z,94508.23
2018-07-26T13:06:14.257Z,94507.67
2018-07-26T13:08:48.007Z,94509.71
2018-07-26T13:11:23.049Z,94511.41
2018-07-26T13:13:54.475Z,94524.73
2018-07-26T13:16:27.183Z,94524.59
2018-07-26T13:18:57.423Z,94524.94
2018-07-26T13:21:30.717Z,94522.89
2018-07-26T13:24:01.564Z,94526.70
2018-07-26T13:26:32.532Z,94527.62
2018-07-26T13:29:10.163Z,94534.69
2018-07-26T13:31:40.845Z,94534.88
2018-07-26T13:34:10.998Z,94535.18
2018-07-26T13:36:40.573Z,94527.58
2018-07-26T13:39:14.677Z,94532.68
2018-07-26T13:41:45.901Z,94539.09
2018-07-26T13:44:21.652Z,94536.89
2018-07-26T13:46:51.316Z,94538.66
2018-07-26T13:49:21.351Z,94535.33
2018-07-26T13:51:52.466Z,94529.41
2018-07-26T13:54:22.675Z,94528.39
2018-07-26T13:56:52.386Z,94526.22
2018-07-26T13:59:28.505Z,94517.69
2018-07-26T14:01:59.136Z,94522.56
2018-07-26T14:04:28.864Z,94527.53
2018-07-26T14:06:58.623Z,94533.69
2018-07-26T14:09:28.238Z,94544.03
2018-07-26T14:11:58.046Z,94540.27
2018-07-26T14:14:27.789Z,94537.33
2018-07-26T14:16:57.449Z,94539.94
2018-07-26T14:19:28.738Z,94536.70
2018-07-26T14:21:58.403Z,94536.05
2018-07-26T14:24:28.036Z,94548.59
2018-07-26T14:26:58.056Z,94543.22
2018-07-26T14:29:27.676Z,94547.78
2018-07-26T14:31:57.360Z,94548.64
2018-07-26T14:34:27.680Z,94551.59
2018-07-26T14:36:57.414Z,94552.16
2018-07-26T14:39:28.289Z,94551.88
2018-07-26T14:41:58.131Z,94552.56
2018-07-26T14:44:27.734Z,94551.00
2018-07-26T14:46:57.519Z,94545.94
2018-07-26T14:49:29.517Z,94544.49
2018-07-26T14:51:59.827Z,94543.87
2018-07-26T14:54:29.856Z,94541.05
2018-07-26T14:56:59.673Z,94543.61
2018-07-26T14:59:29.769Z,94548.52
2018-07-26T15:02:01.392Z,94547.56
2018-07-26T15:04:32.160Z,94544.53
2018-07-26T15:07:02.423Z,94510.72
2018-07-26T15:09:31.993Z,94544.16
2018-07-26T15:12:03.238Z,94546.84
2018-07-26T15:14:33.309Z,94552.67
2018-07-26T15:17:03.001Z,94557.27
2018-07-26T15:19:32.747Z,94557.70
2018-07-26T15:22:04.910Z,94571.67
2018-07-26T15:24:35.457Z,94570.02
2018-07-26T15:27:06.549Z,94573.97
2018-07-26T15:29:38.237Z,94573.72
2018-07-26T15:32:09.413Z,94578.48
2018-07-26T15:34:40.697Z,94585.97
2018-07-26T15:37:14.144Z,94587.68
2018-07-26T15:39:44.778Z,94588.23
2018-07-26T15:42:17.127Z,94589.17
2018-07-26T15:44:50.645Z,94594.80
2018-07-26T15:47:20.642Z,94591.02
2018-07-26T15:49:50.923Z,94569.65
2018-07-26T15:52:20.545Z,94600.50
2018-07-26T15:54:49.955Z,94599.48
2018-07-26T15:57:19.546Z,94605.74
2018-07-26T15:59:48.816Z,94602.00
2018-07-26T16:02:18.600Z,94603.33
2018-07-26T16:04:48.021Z,94610.33
2018-07-26T16:07:17.577Z,94609.63
2018-07-26T16:09:47.543Z,94615.23
2018-07-26T16:12:16.992Z,94618.78
2018-07-26T16:14:46.804Z,94620.33
2018-07-26T16:17:16.749Z,94623.34
2018-07-26T16:19:46.551Z,94627.35
2018-07-26T16:22:16.286Z,94628.53
2018-07-26T16:24:45.994Z,94632.08
2018-07-26T16:27:15.685Z,94642.25
2018-07-26T16:29:45.324Z,94637.60
2018-07-26T16:32:15.107Z,94640.80
2018-07-26T16:34:44.829Z,94647.59
2018-07-26T16:37:14.429Z,94643.58
2018-07-26T16:39:44.124Z,94642.64
2018-07-26T16:42:13.761Z,94647.33
2018-07-26T16:44:43.309Z,94646.99
2018-07-26T16:47:13.038Z,94647.26
2018-07-26T16:49:42.889Z,94649.67
2018-07-26T16:52:12.510Z,94650.02
2018-07-26T16:54:42.534Z,94653.57
2018-07-26T16:57:12.029Z,94647.00
2018-07-26T16:59:41.720Z,94649.00
2018-07-26T17:02:11.340Z,94645.24
2018-07-26T17:04:41.182Z,94647.59
2018-07-26T17:07:10.846Z,94647.91
2018-07-26T17:09:40.703Z,94646.92
2018-07-26T17:12:10.497Z,94652.16
2018-07-26T17:14:40.001Z,94660.30
2018-07-26T17:17:09.626Z,94655.04
2018-07-26T17:19:39.114Z,94658.52
2018-07-26T17:22:08.810Z,94657.86
2018-07-26T17:24:39.035Z,94658.41
2018-07-26T17:27:08.659Z,94665.73
2018-07-26T17:29:38.276Z,94669.09
2018-07-26T17:32:08.153Z,94669.02
2018-07-26T17:34:37.753Z,94670.64
2018-07-26T17:37:07.180Z,94674.45
2018-07-26T17:39:37.133Z,94680.44
2018-07-26T17:42:06.622Z,94683.91
2018-07-26T17:44:36.294Z,94690.82
2018-07-26T17:47:06.157Z,94685.37
2018-07-26T17:49:35.978Z,94685.37
2018-07-26T17:52:05.458Z,94688.72
2018-07-26T17:54:35.493Z,94699.47
2018-07-26T17:57:05.236Z,94697.59
2018-07-26T17:59:34.921Z,94699.36
2018-07-26T18:02:04.728Z,94695.58
2018-07-26T18:04:34.075Z,94704.04
2018-07-26T18:07:03.410Z,94695.83
2018-07-26T18:09:33.041Z,94694.25
2018-07-26T18:12:02.374Z,94688.91
2018-07-26T18:14:31.649Z,94687.13
2018-07-26T18:17:01.671Z,94694.03
2018-07-26T18:19:31.075Z,94697.58
2018-07-26T18:22:00.820Z,94702.05
2018-07-26T18:24:30.908Z,94697.36
2018-07-26T18:27:01.115Z,94694.36
2018-07-26T18:29:30.887Z,94695.23
2018-07-26T18:32:00.753Z,94696.91
2018-07-26T18:34:30.342Z,94696.23
2018-07-26T18:36:59.977Z,94712.04
2018-07-26T18:39:30.088Z,94716.91
2018-07-26T18:41:59.668Z,94710.92
2018-07-26T18:44:29.306Z,94711.14
2018-07-26T18:46:59.210Z,94714.59
2018-07-26T18:49:28.827Z,94713.78
2018-07-26T18:51:58.494Z,94715.44
2018-07-26T18:54:28.370Z,94712.67
2018-07-26T18:56:58.244Z,94721.77
2018-07-26T18:59:28.261Z,94720.56
2018-07-26T19:01:58.201Z,94732.68
2018-07-26T19:04:27.750Z,94744.26
2018-07-26T19:06:57.425Z,94740.91
2018-07-26T19:09:27.019Z,94737.88
2018-07-26T19:11:56.724Z,94745.55
2018-07-26T19:14:26.049Z,94740.48
2018-07-26T19:16:55.834Z,94741.63
2018-07-26T19:19:25.336Z,94745.05
2018-07-26T19:21:55.113Z,94743.48
2018-07-26T19:24:25.083Z,94745.77
2018-07-26T19:26:54.522Z,94747.59
2018-07-26T19:29:24.093Z,94746.02
2018-07-26T19:31:53.914Z,94749.47
2018-07-26T19:34:23.610Z,94754.00
2018-07-26T19:36:53.203Z,94758.49
2018-07-26T19:39:22.843Z,94760.56
2018-07-26T19:41:52.267Z,94760.89
2018-07-26T19:44:21.872Z,94758.89
2018-07-26T19:46:51.730Z,94753.28
2018-07-26T19:49:21.591Z,94750.41
2018-07-26T19:51:51.287Z,94755.06
2018-07-26T19:54:21.349Z,94752.74
2018-07-26T19:56:50.800Z,94751.88
2018-07-26T19:59:20.231Z,94755.01
2018-07-26T20:01:49.825Z,94765.80
2018-07-26T20:04:19.509Z,94759.00
2018-07-26T20:06:49.612Z,94762.02
2018-07-26T20:09:19.380Z,94759.33
2018-07-26T20:11:49.064Z,94752.54
2018-07-26T20:14:18.889Z,94761.86
2018-07-26T20:16:48.684Z,94755.83
2018-07-26T20:19:18.338Z,94758.95
2018-07-26T20:21:48.370Z,94762.67
2018-07-26T20:24:18.246Z,94760.02
2018-07-26T20:26:47.595Z,94748.44
2018-07-26T20:29:17.098Z,94758.14
2018-07-26T20:31:46.438Z,94751.56
2018-07-26T20:34:15.859Z,94757.59
2018-07-26T20:36:45.851Z,94755.69
2018-07-26T20:39:15.472Z,94751.56
2018-07-26T20:59:06.318Z,94758.48
2018-07-26T21:19:02.453Z,94765.53
2018-07-26T21:38:54.322Z,94762.02
2018-07-26T21:41:23.908Z,94764.42
2018-07-26T21:43:53.608Z,94766.62
2018-07-26T21:46:26.289Z,94769.84
2018-07-26T21:48:58.302Z,94767.44
2018-07-26T21:51:29.345Z,94760.47
2018-07-26T21:54:03.482Z,94761.72
2018-07-26T21:59:19.431Z,94767.12
2018-07-26T22:01:55.776Z,94768.84
2018-07-26T22:04:32.113Z,94766.50
2018-07-26T22:07:06.966Z,94764.48
2018-07-26T22:09:45.079Z,94766.42
2018-07-26T22:12:18.482Z,94767.06
2018-07-26T22:14:52.935Z,94765.66
2018-07-26T22:34:48.516Z,94770.31
2018-07-26T22:37:27.523Z,94777.58
2018-07-26T22:40:03.919Z,94775.47
2018-07-26T22:42:37.925Z,94777.81
2018-07-26T22:45:10.328Z,94771.23
2018-07-26T22:47:44.730Z,94766.93
2018-07-26T22:50:21.781Z,94776.33
2018-07-26T22:52:54.053Z,94773.81
2018-07-26T22:55:34.402Z,94766.47
2018-07-26T22:58:07.440Z,94768.66
2018-07-26T23:00:45.936Z,94777.66
2018-07-26T23:03:20.738Z,94766.70
2018-07-26T23:05:53.738Z,94770.16
2018-07-26T23:08:28.563Z,94765.92
2018-07-26T23:11:00.062Z,94775.23
2018-07-26T23:13:31.166Z,94768.84
2018-07-26T23:16:02.608Z,94769.86
2018-07-26T23:18:36.934Z,94763.70
2018-07-26T23:21:19.586Z,94766.04
2018-07-26T23:23:50.706Z,94763.25
2018-07-26T23:26:21.554Z,94767.78
2018-07-26T23:28:54.257Z,94767.84
2018-07-26T23:31:27.159Z,94766.06
2018-07-26T23:33:58.720Z,94763.70
2018-07-26T23:36:28.662Z,94764.33
2018-07-26T23:38:59.899Z,94764.08
2018-07-26T23:41:37.188Z,94764.30
2018-07-26T23:44:08.417Z,94766.47
2018-07-26T23:46:40.349Z,94769.86
2018-07-26T23:49:11.425Z,94771.56
2018-07-26T23:51:42.162Z,94773.11
2018-07-26T23:54:15.048Z,94770.98
2018-07-26T23:56:46.118Z,94778.58
2018-07-26T23:59:17.206Z,94776.14
